X  Close Metar Aviation Weather Data     EGGD Bristol Airport
Temperature
1°C Temperature
0°C Dewpoint
93% Humidity



Wind
5 MPH
8 KM/H
2 M/S
4 KTS



280°
West
Current Conditions

Mostly Scattered Clouds Mostly Scattered Clouds
Pressure 1033.92 (hPa) - 30.53 (inHg)
Visibility 6.2 (mile) - 10 (km)
Airport
Airport-code EGGD

Location: Bristol Airport
Distance: 11 (mi)

Metar:
EGGD 200450Z AUTO 28004KT 9999 SCT042 01/M00 Q1034

Time: 20-01-2022 04:50 GMT